Sugar City, CO

2:30 AM MDT on October 31, 2014 (GMT -0600)
Lamar Municipal | Change Station
CLOSE
Current Station
Airport
Location: Lamar,
Elevation: 3704 ft
Nearby Weather Stations
Active Advisory: Freeze Warning

Elev 3704 ft 38.07 °N, 102.69 °W | Updated 37 minutes ago

Clear
Clear
35 °F
Feels Like 35 °F
N
0
Wind Variable Wind from North

Today
High -- | Low -- °F
--% Chance of Precip.
Yesterday
High -- | Low -- °F
Precip. -- in
7:19 AM 5:56 PM
First Quarter, 53% visible
Pressure 30.37 in
Visibility 9.0 miles
Clouds Clear
Dew Point 25 °F
Humidity 67%
Rainfall 0.00 in
Snow Depth Not available.
UV 0 out of 12
Pollen 1.00 out of 12
Air Quality Not available.
Flu Activity Not available.
METAR KLAA 310753Z AUTO 00000KT 9SM CLR 02/M04 A3041 RMK AO2 SLP284 T00171039

More Conditions Fewer Conditions

Pressure 30.37 in
Visibility 9.0 miles
Clouds Clear
Dew Point 25 °F
Humidity 67%
Rainfall 0.00 in
Snow Depth Not available.
UV 0 out of 12
Pollen 1.00 out of 12
Air Quality Not available.
Flu Activity Not available.
METAR KLAA 310753Z AUTO 00000KT 9SM CLR 02/M04 A3041 RMK AO2 SLP284 T00171039

More Conditions Fewer Conditions

10-Day Weather Forecast

Almanac

Astronomy

Oct. 31, 2014 Rise Set
Actual Time
Civil Twilight
Nautical Twilight
Astronomical Twilight
Moon
Length of Visible Light
Length of Day
Tomorrow will be .
, % of the Moon is Illuminated

Today's Extremes

State Highs State Lows

Community

WunderPhotos

Upload Photos

1,766,573 photos uploaded!

WunderBlogs® & News

Nearby

Air Quality

  Air Quality AQ Index Pollutant
Not available.

Snow Depth

Station Depth Elevation

Earthquake Activity

City Distance Mag. Time & Date
Minimum magnitude displayed is 2.5.

Coastal Water Temperatures

Place Temperature

Nearby Weather Stations